Terminal Aerodrome Forecast
Issued by NWS Tuscon, AZ

Home | Current Version | Previous Version | Text Only | Print | Product List | Glossary On
Versions: 1 2 3 4 5 6 7 8 9 10 11 12 13 14
568
FTUS45 KTWC 081738
TAFTUS
TAF
KTUS 081738Z 0818/0918 13014G22KT P6SM SCT250
     FM082300 10012KT P6SM SCT250
     FM091000 14011KT P6SM SKC=

USA.gov is the U.S. government's official web portal to all federal, state and local government web resources and services.